createdAt,value
2018-02-27T00:01:13.042Z,99.99
2018-02-27T00:02:34.974Z,99.99
2018-02-27T00:03:57.201Z,99.99
2018-02-27T00:05:18.549Z,99.99
2018-02-27T00:06:40.421Z,99.99
2018-02-27T00:08:01.531Z,99.99
2018-02-27T00:09:23.134Z,99.99
2018-02-27T00:10:45.077Z,99.99
2018-02-27T00:12:06.159Z,99.99
2018-02-27T00:13:27.497Z,99.99
2018-02-27T00:14:49.126Z,99.99
2018-02-27T00:16:10.467Z,99.99
2018-02-27T00:17:32.172Z,99.99
2018-02-27T00:18:53.290Z,99.99
2018-02-27T00:20:14.694Z,99.99
2018-02-27T00:21:36.721Z,99.99
2018-02-27T00:22:58.580Z,99.99
2018-02-27T00:24:20.172Z,99.99
2018-02-27T00:25:41.342Z,99.99
2018-02-27T00:27:02.957Z,99.99
2018-02-27T00:28:24.407Z,99.99
2018-02-27T00:29:46.547Z,99.99
2018-02-27T00:31:08.434Z,99.99
2018-02-27T00:32:30.628Z,99.99
2018-02-27T00:33:51.985Z,99.99
2018-02-27T00:35:13.823Z,99.99
2018-02-27T00:36:35.687Z,99.99
2018-02-27T00:37:57.693Z,99.99
2018-02-27T00:39:19.049Z,99.99
2018-02-27T00:40:40.274Z,99.99
2018-02-27T00:42:02.235Z,99.99
2018-02-27T00:43:24.111Z,99.99
2018-02-27T00:44:45.712Z,99.99
2018-02-27T00:46:07.303Z,99.99
2018-02-27T00:47:29.226Z,99.99
2018-02-27T00:48:51.358Z,99.99
2018-02-27T00:50:13.222Z,99.99
2018-02-27T00:51:34.840Z,99.99
2018-02-27T00:52:56.272Z,99.99
2018-02-27T00:54:17.918Z,99.99
2018-02-27T00:55:39.776Z,99.99
2018-02-27T00:57:01.892Z,99.99
2018-02-27T00:58:23.512Z,99.99
2018-02-27T00:59:45.617Z,99.99
2018-02-27T01:01:07.737Z,99.99
2018-02-27T01:02:29.894Z,99.99
2018-02-27T01:03:51.648Z,99.99
2018-02-27T01:05:13.790Z,99.99
2018-02-27T01:06:35.940Z,99.99
2018-02-27T01:07:58.145Z,99.99
2018-02-27T01:09:19.779Z,99.99
2018-02-27T01:10:41.938Z,99.99
2018-02-27T01:12:03.507Z,99.99
2018-02-27T01:13:25.142Z,99.99
2018-02-27T01:14:47.251Z,99.99
2018-02-27T01:16:09.374Z,99.99
2018-02-27T01:17:31.253Z,99.99
2018-02-27T01:18:53.246Z,99.99
2018-02-27T01:20:15.261Z,99.99
2018-02-27T01:21:37.388Z,99.99
2018-02-27T01:22:59.524Z,99.99
2018-02-27T01:24:21.822Z,99.99
2018-02-27T01:25:43.943Z,99.99
2018-02-27T01:27:05.567Z,99.99
2018-02-27T01:28:27.694Z,99.99
2018-02-27T01:29:49.283Z,99.99
2018-02-27T01:31:10.915Z,99.99
2018-02-27T01:32:33.033Z,99.99
2018-02-27T01:33:54.983Z,99.99
2018-02-27T01:35:16.333Z,99.99
2018-02-27T01:36:38.182Z,99.99
2018-02-27T01:38:00.320Z,99.99
2018-02-27T01:39:22.474Z,99.99
2018-02-27T01:40:44.347Z,99.99
2018-02-27T01:42:06.212Z,99.99
2018-02-27T01:43:27.315Z,99.99
2018-02-27T01:44:49.186Z,99.99
2018-02-27T01:46:10.300Z,99.99
2018-02-27T01:47:31.922Z,99.99
2018-02-27T01:48:54.059Z,99.99
2018-02-27T01:50:16.013Z,99.99
2018-02-27T01:51:37.733Z,99.99
2018-02-27T01:52:59.602Z,99.99
2018-02-27T01:54:21.192Z,99.99
2018-02-27T01:55:42.533Z,99.99
2018-02-27T01:57:04.215Z,99.99
2018-02-27T01:58:25.942Z,99.99
2018-02-27T01:59:47.831Z,99.99
2018-02-27T02:01:09.452Z,99.99
2018-02-27T02:02:31.336Z,99.99
2018-02-27T02:03:52.971Z,99.99
2018-02-27T02:05:14.319Z,99.99
2018-02-27T02:06:35.910Z,99.99
2018-02-27T02:07:57.244Z,99.99
2018-02-27T02:09:19.395Z,99.99
2018-02-27T02:10:41.294Z,99.99
2018-02-27T02:12:03.164Z,99.99
2018-02-27T02:13:24.819Z,99.99
2018-02-27T02:14:47.084Z,99.99
2018-02-27T02:16:09.214Z,99.99
2018-02-27T02:17:30.966Z,99.99
2018-02-27T02:18:52.417Z,99.99
2018-02-27T02:20:14.556Z,99.99
2018-02-27T02:21:35.922Z,99.99
2018-02-27T02:22:56.728Z,99.99
2018-02-27T02:24:18.164Z,99.99
2018-02-27T02:25:39.764Z,99.99
2018-02-27T02:27:01.096Z,99.99
2018-02-27T02:28:22.422Z,99.99
2018-02-27T02:29:44.678Z,99.99
2018-02-27T02:31:06.152Z,99.99
2018-02-27T02:32:28.375Z,99.99
2018-02-27T02:33:50.202Z,99.99
2018-02-27T02:35:11.843Z,99.99
2018-02-27T02:36:33.852Z,99.99
2018-02-27T02:37:55.730Z,99.99
2018-02-27T02:39:17.613Z,99.99
2018-02-27T02:40:39.783Z,99.99
2018-02-27T02:42:01.417Z,99.99
2018-02-27T02:43:23.374Z,99.99
2018-02-27T02:44:45.241Z,99.99
2018-02-27T02:46:07.093Z,99.99
2018-02-27T02:47:28.932Z,99.99
2018-02-27T02:48:50.874Z,99.99
2018-02-27T02:50:12.481Z,99.99
2018-02-27T02:51:34.583Z,99.99
2018-02-27T02:52:56.169Z,99.99
2018-02-27T02:54:17.770Z,99.99
2018-02-27T02:55:39.146Z,99.99
2018-02-27T02:57:01.102Z,99.99
2018-02-27T02:58:23.209Z,99.99
2018-02-27T02:59:44.813Z,99.99
2018-02-27T03:01:06.683Z,99.99
2018-02-27T03:02:28.584Z,99.99
2018-02-27T03:03:50.446Z,99.99
2018-02-27T03:05:12.043Z,99.99
2018-02-27T03:06:33.963Z,99.99
2018-02-27T03:07:55.892Z,99.99
2018-02-27T03:09:17.232Z,99.99
2018-02-27T03:10:39.278Z,99.99
2018-02-27T03:12:01.248Z,99.99
2018-02-27T03:13:23.193Z,99.99
2018-02-27T03:14:44.542Z,99.99
2018-02-27T03:16:06.127Z,99.99
2018-02-27T03:17:27.190Z,99.99
2018-02-27T03:18:49.105Z,99.99
2018-02-27T03:20:10.436Z,99.99
2018-02-27T03:21:32.019Z,99.99
2018-02-27T03:22:53.995Z,99.99
2018-02-27T03:24:15.195Z,99.99
2018-02-27T03:25:37.335Z,99.99
2018-02-27T03:26:58.933Z,99.99
2018-02-27T03:28:52.393Z,99.99
2018-02-27T03:30:14.036Z,99.99
2018-02-27T03:31:35.923Z,99.99
2018-02-27T03:32:57.514Z,99.99
2018-02-27T03:34:19.102Z,99.99
2018-02-27T03:35:40.962Z,99.99
2018-02-27T03:37:02.573Z,99.99
2018-02-27T03:38:24.434Z,99.99
2018-02-27T03:39:46.091Z,99.99
2018-02-27T03:41:07.451Z,99.99
2018-02-27T03:42:29.303Z,99.99
2018-02-27T03:43:51.162Z,99.99
2018-02-27T03:45:12.758Z,99.99
2018-02-27T03:46:34.399Z,99.99
2018-02-27T03:47:55.729Z,99.99
2018-02-27T03:49:17.723Z,99.99
2018-02-27T03:50:39.310Z,99.99
2018-02-27T03:52:00.899Z,99.99
2018-02-27T03:53:23.092Z,99.99
2018-02-27T03:54:44.956Z,99.99
2018-02-27T03:56:06.821Z,99.99
2018-02-27T03:57:28.483Z,99.99
2018-02-27T03:58:50.396Z,99.99
2018-02-27T04:00:12.476Z,99.99
2018-02-27T04:01:34.333Z,99.99
2018-02-27T04:02:56.207Z,99.99
2018-02-27T04:04:17.792Z,99.99
2018-02-27T04:05:39.641Z,99.99
2018-02-27T04:07:01.286Z,99.99
2018-02-27T04:08:22.895Z,99.99
2018-02-27T04:09:44.587Z,99.99
2018-02-27T04:11:06.583Z,99.99
2018-02-27T04:12:28.472Z,99.99
2018-02-27T04:13:49.818Z,99.99
2018-02-27T04:15:11.680Z,99.99
2018-02-27T04:16:33.323Z,99.99
2018-02-27T04:17:55.037Z,99.99
2018-02-27T04:19:16.376Z,99.99
2018-02-27T04:20:38.076Z,99.99
2018-02-27T04:21:59.663Z,99.99
2018-02-27T04:23:21.521Z,99.99
2018-02-27T04:24:43.512Z,99.99
2018-02-27T04:26:05.101Z,99.99
2018-02-27T04:27:27.088Z,99.99
2018-02-27T04:28:49.246Z,99.99
2018-02-27T04:30:11.167Z,99.99
2018-02-27T04:31:32.791Z,99.99
2018-02-27T04:32:53.872Z,99.99
2018-02-27T04:34:15.715Z,99.99
2018-02-27T04:35:37.601Z,99.99
2018-02-27T04:36:59.337Z,99.99
2018-02-27T04:38:21.192Z,99.99
2018-02-27T04:39:42.583Z,99.99
2018-02-27T04:41:04.223Z,99.99
2018-02-27T04:42:25.538Z,99.99
2018-02-27T04:43:47.788Z,99.99
2018-02-27T04:45:09.428Z,99.99
2018-02-27T04:46:31.290Z,99.99
2018-02-27T04:47:52.900Z,99.99
2018-02-27T04:49:15.005Z,99.99
2018-02-27T04:50:36.619Z,99.99
2018-02-27T04:51:58.202Z,99.99
2018-02-27T04:53:19.861Z,99.99
2018-02-27T04:54:40.943Z,99.99
2018-02-27T04:56:02.651Z,99.99
2018-02-27T04:57:24.268Z,99.99
2018-02-27T04:58:45.596Z,99.99
2018-02-27T05:00:06.712Z,99.99
2018-02-27T05:01:28.456Z,99.99
2018-02-27T05:02:49.800Z,99.99
2018-02-27T05:04:11.681Z,99.99
2018-02-27T05:05:33.652Z,99.99
2018-02-27T05:06:55.035Z,99.99
2018-02-27T05:08:16.392Z,99.99
2018-02-27T05:09:38.094Z,99.99
2018-02-27T05:10:59.938Z,99.99
2018-02-27T05:12:21.562Z,99.99
2018-02-27T05:13:43.024Z,99.99
2018-02-27T05:15:04.665Z,99.99
2018-02-27T05:16:25.983Z,99.99
2018-02-27T05:17:47.843Z,99.99
2018-02-27T05:19:10.025Z,99.99
2018-02-27T05:20:31.885Z,99.99
2018-02-27T05:21:53.505Z,99.99
2018-02-27T05:23:14.896Z,99.99
2018-02-27T05:24:36.885Z,99.99
2018-02-27T05:25:58.238Z,99.99
2018-02-27T05:27:20.223Z,99.99
2018-02-27T05:28:41.135Z,99.99
2018-02-27T05:30:02.812Z,99.99
2018-02-27T05:31:24.425Z,99.99
2018-02-27T05:32:46.024Z,99.99
2018-02-27T05:34:07.100Z,99.99
2018-02-27T05:35:29.360Z,99.99
2018-02-27T05:36:50.435Z,99.99
2018-02-27T05:38:12.021Z,99.99
2018-02-27T05:39:34.160Z,99.99
2018-02-27T05:40:56.075Z,99.99
2018-02-27T05:42:17.742Z,99.99
2018-02-27T05:43:39.372Z,99.99
2018-02-27T05:45:00.711Z,99.99
2018-02-27T05:46:22.585Z,99.99
2018-02-27T05:47:44.465Z,99.99
2018-02-27T05:49:06.623Z,99.99
2018-02-27T05:50:28.526Z,99.99
2018-02-27T05:51:50.253Z,99.99
2018-02-27T05:53:12.205Z,99.99
2018-02-27T05:54:34.190Z,99.99
2018-02-27T05:55:55.534Z,99.99
2018-02-27T05:57:16.883Z,99.99
2018-02-27T05:58:38.594Z,99.99
2018-02-27T06:00:00.738Z,99.99
2018-02-27T06:01:22.624Z,99.99
2018-02-27T06:02:43.967Z,99.99
2018-02-27T06:04:05.324Z,99.99
2018-02-27T06:05:26.652Z,99.99
2018-02-27T06:06:48.259Z,99.99
2018-02-27T06:08:09.852Z,99.99
2018-02-27T06:09:31.733Z,99.99
2018-02-27T06:10:53.185Z,99.99
2018-02-27T06:12:15.215Z,99.99
2018-02-27T06:13:37.367Z,99.99
2018-02-27T06:14:58.763Z,99.99
2018-02-27T06:16:21.033Z,99.99
2018-02-27T06:17:42.343Z,99.99
2018-02-27T06:19:04.240Z,99.99
2018-02-27T06:20:26.524Z,99.99
2018-02-27T06:21:48.643Z,99.99
2018-02-27T06:23:10.515Z,99.99
2018-02-27T06:24:32.112Z,99.99
2018-02-27T06:25:53.743Z,99.99
2018-02-27T06:27:15.602Z,99.99
2018-02-27T06:28:37.199Z,99.99
2018-02-27T06:29:59.312Z,99.99
2018-02-27T06:31:20.965Z,99.99
2018-02-27T06:32:43.252Z,99.99
2018-02-27T06:34:04.835Z,99.99
2018-02-27T06:35:26.703Z,99.99
2018-02-27T06:36:48.594Z,99.99
2018-02-27T06:38:10.436Z,99.99
2018-02-27T06:39:32.021Z,99.99
2018-02-27T06:40:53.101Z,99.99
2018-02-27T06:42:15.114Z,99.99
2018-02-27T06:43:36.994Z,99.99
2018-02-27T06:44:58.320Z,99.99
2018-02-27T06:46:20.009Z,99.99
2018-02-27T06:47:41.875Z,99.99
2018-02-27T06:49:03.496Z,99.99
2018-02-27T06:50:25.397Z,99.99
2018-02-27T06:51:47.513Z,99.99
2018-02-27T06:53:09.167Z,99.99
2018-02-27T06:54:30.549Z,99.99
2018-02-27T06:55:52.202Z,99.99
2018-02-27T06:57:13.556Z,99.99
2018-02-27T06:58:35.436Z,99.99
2018-02-27T06:59:57.084Z,99.99
2018-02-27T07:01:18.706Z,99.99
2018-02-27T07:02:40.957Z,99.99
2018-02-27T07:04:03.097Z,99.99
2018-02-27T07:05:25.234Z,99.99
2018-02-27T07:06:46.866Z,99.99
2018-02-27T07:08:08.712Z,99.99
2018-02-27T07:09:30.572Z,99.99
2018-02-27T07:10:52.292Z,99.99
2018-02-27T07:12:14.043Z,99.99
2018-02-27T07:13:35.896Z,99.99
2018-02-27T07:14:57.750Z,99.99
2018-02-27T07:16:19.092Z,99.99
2018-02-27T07:17:40.972Z,99.99
2018-02-27T07:19:03.174Z,99.99
2018-02-27T07:20:24.792Z,99.99
2018-02-27T07:21:46.386Z,99.99
2018-02-27T07:23:08.505Z,99.99
2018-02-27T07:24:30.628Z,99.99
2018-02-27T07:25:52.812Z,99.99
2018-02-27T07:27:13.931Z,99.99
2018-02-27T07:28:35.672Z,99.99
2018-02-27T07:29:57.820Z,99.99
2018-02-27T07:31:19.894Z,99.99
2018-02-27T07:32:41.262Z,99.99
2018-02-27T07:34:02.696Z,99.99
2018-02-27T07:35:24.383Z,99.99
2018-02-27T07:36:45.977Z,99.99
2018-02-27T07:38:07.761Z,99.99
2018-02-27T07:39:29.366Z,99.99
2018-02-27T07:40:51.503Z,99.99
2018-02-27T07:42:13.093Z,99.99
2018-02-27T07:43:34.439Z,99.99
2018-02-27T07:44:55.788Z,99.99
2018-02-27T07:46:17.668Z,99.99
2018-02-27T07:47:39.577Z,99.99
2018-02-27T07:49:01.453Z,99.99
2018-02-27T07:50:23.433Z,99.99
2018-02-27T07:51:45.660Z,99.99
2018-02-27T07:53:07.012Z,99.99
2018-02-27T07:54:28.739Z,99.99
2018-02-27T07:55:50.085Z,99.99
2018-02-27T07:57:11.775Z,99.99
2018-02-27T07:58:33.936Z,99.99
2018-02-27T07:59:55.611Z,99.99
2018-02-27T08:01:17.759Z,99.99
2018-02-27T08:02:39.894Z,99.99
2018-02-27T08:04:01.604Z,99.99
2018-02-27T08:05:23.972Z,99.99
2018-02-27T08:06:45.574Z,99.99
2018-02-27T08:08:06.705Z,99.99
2018-02-27T08:09:28.344Z,99.99
2018-02-27T08:10:50.499Z,99.99
2018-02-27T08:12:12.503Z,99.99
2018-02-27T08:13:34.403Z,99.99
2018-02-27T08:14:56.338Z,99.99
2018-02-27T08:16:18.305Z,99.99
2018-02-27T08:17:40.424Z,99.99
2018-02-27T08:19:02.562Z,99.99
2018-02-27T08:20:24.089Z,99.99
2018-02-27T08:21:46.295Z,99.99
2018-02-27T08:23:07.896Z,99.99
2018-02-27T08:24:29.550Z,99.99
2018-02-27T08:25:51.155Z,99.99
2018-02-27T08:27:12.520Z,99.99
2018-02-27T08:28:33.918Z,99.99
2018-02-27T08:29:55.582Z,99.99
2018-02-27T08:31:16.921Z,99.99
2018-02-27T08:32:38.853Z,99.99
2018-02-27T08:34:00.458Z,99.99
2018-02-27T08:35:22.494Z,99.99
2018-02-27T08:36:44.477Z,99.99
2018-02-27T08:38:06.393Z,99.99
2018-02-27T08:39:27.740Z,99.99
2018-02-27T08:40:49.360Z,99.99
2018-02-27T08:42:10.733Z,99.99
2018-02-27T08:43:32.755Z,99.99
2018-02-27T08:44:54.701Z,99.99
2018-02-27T08:46:16.308Z,99.99
2018-02-27T08:47:37.933Z,99.99
2018-02-27T08:48:59.813Z,99.99
2018-02-27T08:50:21.511Z,99.99
2018-02-27T08:51:43.118Z,99.99
2018-02-27T08:53:05.265Z,99.99
2018-02-27T08:54:27.123Z,99.99
2018-02-27T08:55:48.737Z,99.99
2018-02-27T08:57:10.328Z,99.99
2018-02-27T08:58:31.943Z,99.99
2018-02-27T08:59:53.883Z,99.99
2018-02-27T09:01:15.764Z,99.99
2018-02-27T09:02:37.625Z,99.99
2018-02-27T09:03:59.739Z,99.99
2018-02-27T09:05:21.679Z,99.99
2018-02-27T09:06:43.542Z,99.99
2018-02-27T09:08:05.479Z,99.99
2018-02-27T09:09:27.103Z,99.99
2018-02-27T09:10:48.736Z,99.99
2018-02-27T09:12:10.333Z,99.99
2018-02-27T09:13:32.209Z,99.99
2018-02-27T09:14:53.908Z,99.99
2018-02-27T09:16:15.653Z,99.99
2018-02-27T09:17:37.789Z,99.99
2018-02-27T09:18:59.919Z,99.99
2018-02-27T09:20:21.825Z,99.99
2018-02-27T09:21:43.292Z,99.99
2018-02-27T09:23:05.439Z,99.99
2018-02-27T09:24:27.109Z,99.99
2018-02-27T09:25:48.718Z,99.99
2018-02-27T09:27:10.335Z,99.99
2018-02-27T09:28:31.768Z,99.99
2018-02-27T09:29:53.353Z,99.99
2018-02-27T09:31:15.244Z,99.99
2018-02-27T09:32:37.156Z,99.99
2018-02-27T09:33:59.018Z,99.99
2018-02-27T09:35:21.194Z,99.99
2018-02-27T09:36:42.853Z,99.99
2018-02-27T09:38:04.822Z,99.99
2018-02-27T09:39:26.482Z,99.99
2018-02-27T09:40:48.085Z,99.99
2018-02-27T09:42:09.971Z,99.99
2018-02-27T09:43:31.571Z,99.99
2018-02-27T09:44:53.052Z,99.99
2018-02-27T09:46:14.440Z,99.99
2018-02-27T09:47:36.573Z,99.99
2018-02-27T09:48:58.747Z,99.99
2018-02-27T09:50:20.142Z,99.99
2018-02-27T09:51:42.004Z,99.99
2018-02-27T09:53:03.636Z,99.99
2018-02-27T09:54:25.775Z,99.99
2018-02-27T09:55:47.456Z,99.99
2018-02-27T09:57:09.586Z,99.99
2018-02-27T09:58:31.182Z,99.99
2018-02-27T09:59:53.075Z,99.99
2018-02-27T10:01:15.346Z,99.99
2018-02-27T10:02:36.773Z,99.99
2018-02-27T10:03:58.655Z,99.99
2018-02-27T10:05:20.591Z,99.99
2018-02-27T10:06:42.550Z,99.99
2018-02-27T10:08:05.001Z,99.99
2018-02-27T10:09:26.901Z,99.99
2018-02-27T10:10:48.832Z,99.99
2018-02-27T10:12:10.731Z,99.99
2018-02-27T10:13:32.970Z,99.99
2018-02-27T10:14:55.385Z,99.99
2018-02-27T10:16:16.823Z,99.99
2018-02-27T10:17:38.836Z,99.99
2018-02-27T10:19:00.720Z,99.99
2018-02-27T10:20:22.443Z,99.99
2018-02-27T10:21:44.340Z,99.99
2018-02-27T10:23:38.351Z,99.99
2018-02-27T10:25:00.497Z,99.99
2018-02-27T10:26:21.950Z,99.99
2018-02-27T10:27:44.324Z,99.99
2018-02-27T10:29:05.934Z,99.99
2018-02-27T10:30:27.819Z,99.99
2018-02-27T10:31:49.167Z,99.99
2018-02-27T10:33:11.054Z,99.99
2018-02-27T10:34:32.924Z,99.99
2018-02-27T10:35:55.188Z,99.99
2018-02-27T10:37:17.402Z,99.99
2018-02-27T10:38:39.768Z,99.99
2018-02-27T10:40:01.702Z,99.99
2018-02-27T10:41:23.363Z,99.99
2018-02-27T10:42:45.233Z,99.99
2018-02-27T10:44:06.871Z,99.99
2018-02-27T10:45:29.076Z,99.99
2018-02-27T10:46:50.982Z,99.99
2018-02-27T10:48:12.896Z,99.99
2018-02-27T10:49:34.837Z,99.99
2018-02-27T10:50:56.462Z,99.99
2018-02-27T10:52:18.597Z,99.99
2018-02-27T10:53:40.207Z,99.99
2018-02-27T10:55:01.876Z,99.99
2018-02-27T10:56:23.621Z,99.99
2018-02-27T10:57:45.257Z,99.99
2018-02-27T10:59:07.438Z,99.99
2018-02-27T11:00:29.160Z,99.99
2018-02-27T11:01:50.791Z,99.99
2018-02-27T11:03:12.733Z,99.99
2018-02-27T11:04:34.860Z,99.99
2018-02-27T11:05:56.756Z,99.99
2018-02-27T11:07:18.615Z,99.99
2018-02-27T11:08:40.287Z,99.99
2018-02-27T11:10:01.895Z,99.99
2018-02-27T11:11:23.769Z,99.99
2018-02-27T11:12:45.112Z,99.99
2018-02-27T11:14:07.040Z,99.99
2018-02-27T11:15:29.210Z,99.99
2018-02-27T11:16:51.102Z,99.99
2018-02-27T11:18:12.957Z,99.99
2018-02-27T11:19:34.876Z,99.99
2018-02-27T11:20:56.520Z,99.99
2018-02-27T11:22:18.661Z,99.99
2018-02-27T11:23:40.547Z,99.99
2018-02-27T11:25:02.736Z,99.99
2018-02-27T11:26:24.702Z,99.99
2018-02-27T11:27:46.588Z,99.99
2018-02-27T11:29:08.728Z,99.99
2018-02-27T11:30:30.351Z,99.99
2018-02-27T11:31:51.739Z,99.99
2018-02-27T11:33:13.664Z,99.99
2018-02-27T11:34:35.546Z,99.99
2018-02-27T11:35:57.513Z,99.99
2018-02-27T11:37:19.426Z,99.99
2018-02-27T11:38:41.432Z,99.99
2018-02-27T11:40:02.789Z,99.99
2018-02-27T11:41:24.412Z,99.99
2018-02-27T11:42:46.313Z,99.99
2018-02-27T11:44:07.959Z,99.99
2018-02-27T11:45:29.082Z,99.99
2018-02-27T11:46:50.961Z,99.99
2018-02-27T11:48:12.861Z,99.99
2018-02-27T11:49:35.133Z,99.99
2018-02-27T11:50:56.501Z,99.99
2018-02-27T11:52:18.621Z,99.99
2018-02-27T11:53:40.640Z,99.99
2018-02-27T11:55:03.071Z,99.99
2018-02-27T11:56:25.006Z,99.99
2018-02-27T11:57:46.954Z,99.99
2018-02-27T11:59:08.597Z,99.99
2018-02-27T12:00:30.709Z,99.99
2018-02-27T12:01:52.855Z,99.99
2018-02-27T12:03:14.762Z,99.99
2018-02-27T12:04:36.614Z,99.99
2018-02-27T12:05:58.225Z,99.99
2018-02-27T12:07:20.116Z,99.99
2018-02-27T12:08:41.981Z,99.99
2018-02-27T12:10:03.870Z,99.99
2018-02-27T12:11:24.948Z,99.99
2018-02-27T12:12:46.298Z,99.99
2018-02-27T12:14:08.452Z,99.99
2018-02-27T12:15:30.224Z,99.99
2018-02-27T12:16:52.419Z,99.99
2018-02-27T12:18:14.594Z,99.99
2018-02-27T12:19:36.463Z,99.99
2018-02-27T12:20:58.724Z,99.99
2018-02-27T12:22:20.368Z,99.99
2018-02-27T12:23:42.224Z,99.99
2018-02-27T12:25:04.157Z,99.99
2018-02-27T12:26:25.517Z,99.99
2018-02-27T12:27:47.145Z,99.99
2018-02-27T12:29:09.303Z,99.99
2018-02-27T12:30:31.245Z,99.43
2018-02-27T12:31:53.112Z,99.47
2018-02-27T12:33:14.463Z,98.39
2018-02-27T12:34:36.223Z,98.77
2018-02-27T12:35:58.093Z,99.28
2018-02-27T12:37:19.989Z,99
2018-02-27T12:38:41.907Z,99.99
2018-02-27T12:40:04.092Z,99.99
2018-02-27T12:41:26.294Z,99.99
2018-02-27T12:42:48.179Z,99.99
2018-02-27T12:44:10.182Z,99.99
2018-02-27T12:45:32.103Z,99.99
2018-02-27T12:46:53.978Z,99.99
2018-02-27T12:48:15.683Z,99.99
2018-02-27T12:49:37.857Z,99.99
2018-02-27T12:51:00.086Z,99.99
2018-02-27T12:52:21.963Z,99.99
2018-02-27T12:53:43.377Z,99.99
2018-02-27T12:55:05.500Z,99.99
2018-02-27T12:56:27.391Z,99.99
2018-02-27T12:57:49.344Z,99.99
2018-02-27T12:59:11.497Z,99.28
2018-02-27T13:00:33.655Z,99.66
2018-02-27T13:01:55.983Z,98.9
2018-02-27T13:03:17.613Z,97.63
2018-02-27T13:04:39.505Z,95.17
2018-02-27T13:06:00.969Z,94.18
2018-02-27T13:07:22.922Z,93.99
2018-02-27T13:08:45.080Z,91.53
2018-02-27T13:10:06.974Z,90.11
2018-02-27T13:11:28.583Z,90.53
2018-02-27T13:12:50.495Z,89.2
2018-02-27T13:14:11.853Z,89.3
2018-02-27T13:15:33.523Z,89.68
2018-02-27T13:16:55.685Z,89.3
2018-02-27T13:18:17.873Z,89.49
2018-02-27T13:19:39.902Z,92.57
2018-02-27T13:21:01.787Z,93.75
2018-02-27T13:22:23.700Z,97.34
2018-02-27T13:23:45.092Z,99.99
2018-02-27T13:25:07.294Z,99.99
2018-02-27T13:26:29.475Z,99.99
2018-02-27T13:27:51.352Z,99.99
2018-02-27T13:29:13.489Z,99.99
2018-02-27T13:30:35.184Z,99.99
2018-02-27T13:31:57.367Z,99.99
2018-02-27T13:33:18.742Z,99.99
2018-02-27T13:34:40.741Z,99.99
2018-02-27T13:36:02.746Z,99.99
2018-02-27T13:37:24.920Z,99.99
2018-02-27T13:38:46.603Z,99.99
2018-02-27T13:40:08.577Z,99.99
2018-02-27T13:41:30.733Z,99.99
2018-02-27T13:42:52.375Z,99.99
2018-02-27T13:44:14.363Z,99.99
2018-02-27T13:45:36.508Z,99.99
2018-02-27T13:46:58.407Z,99.99
2018-02-27T13:48:20.558Z,99.99
2018-02-27T13:49:52.107Z,99.99
2018-02-27T13:51:13.757Z,99.99
2018-02-27T13:52:35.162Z,99.99
2018-02-27T13:53:57.047Z,99.99
2018-02-27T13:55:19.202Z,99.99
2018-02-27T13:56:40.830Z,99.99
2018-02-27T13:58:03.025Z,99.99
2018-02-27T13:59:25.205Z,99.99
2018-02-27T14:00:47.105Z,99.99
2018-02-27T14:02:09.019Z,99.99
2018-02-27T14:03:31.232Z,99.99
2018-02-27T14:04:52.954Z,99.99
2018-02-27T14:06:15.106Z,99.99
2018-02-27T14:07:37.028Z,99.99
2018-02-27T14:08:59.195Z,99.99
2018-02-27T14:10:21.153Z,99.99
2018-02-27T14:11:43.025Z,99.99
2018-02-27T14:13:04.643Z,99.99
2018-02-27T14:14:26.858Z,99.99
2018-02-27T14:15:48.713Z,99.99
2018-02-27T14:17:10.924Z,99.99
2018-02-27T14:18:32.859Z,99.99
2018-02-27T14:19:54.483Z,99.99
2018-02-27T14:21:16.102Z,99.99
2018-02-27T14:22:37.757Z,99.99
2018-02-27T14:23:59.182Z,99.99
2018-02-27T14:25:20.855Z,99.99
2018-02-27T14:26:42.503Z,99.99
2018-02-27T14:28:04.429Z,99.99
2018-02-27T14:29:26.014Z,99.99
2018-02-27T14:30:47.630Z,99.99
2018-02-27T14:32:09.805Z,99.99
2018-02-27T14:33:31.435Z,99.99
2018-02-27T14:34:53.060Z,99.99
2018-02-27T14:36:14.945Z,99.99
2018-02-27T14:37:36.894Z,99.99
2018-02-27T14:38:59.064Z,99.99
2018-02-27T14:40:20.915Z,99.99
2018-02-27T14:41:43.046Z,99.99
2018-02-27T14:43:04.685Z,99.99
2018-02-27T14:44:26.303Z,99.99
2018-02-27T14:45:48.472Z,99.99
2018-02-27T14:47:10.637Z,99.99
2018-02-27T14:48:32.540Z,99.99
2018-02-27T14:49:54.742Z,99.99
2018-02-27T14:51:17.021Z,99.99
2018-02-27T14:52:38.904Z,99.99
2018-02-27T14:54:01.063Z,99.99
2018-02-27T14:55:22.695Z,99.99
2018-02-27T14:56:44.848Z,99.99
2018-02-27T14:58:07.023Z,99.99
2018-02-27T14:59:28.902Z,99.99
2018-02-27T15:00:50.516Z,99.99
2018-02-27T15:02:12.402Z,99.99
2018-02-27T15:03:34.563Z,99.99
2018-02-27T15:04:56.464Z,99.99
2018-02-27T15:06:18.628Z,99.99
2018-02-27T15:07:40.245Z,99.99
2018-02-27T15:09:01.589Z,99.99
2018-02-27T15:10:23.465Z,99.99
2018-02-27T15:11:44.566Z,99.99
2018-02-27T15:13:06.702Z,99.99
2018-02-27T15:14:28.873Z,99.99
2018-02-27T15:15:51.004Z,99.99
2018-02-27T15:17:13.254Z,99.99
2018-02-27T15:18:35.162Z,99.99
2018-02-27T15:19:57.302Z,99.99
2018-02-27T15:21:19.292Z,99.99
2018-02-27T15:22:41.348Z,99.99
2018-02-27T15:24:03.042Z,99.99
2018-02-27T15:25:25.225Z,99.99
2018-02-27T15:26:47.113Z,99.99
2018-02-27T15:28:08.743Z,99.99
2018-02-27T15:29:30.645Z,99.99
2018-02-27T15:30:52.621Z,99.99
2018-02-27T15:32:14.817Z,99.99
2018-02-27T15:33:36.465Z,99.99
2018-02-27T15:34:58.363Z,99.99
2018-02-27T15:36:20.814Z,99.99
2018-02-27T15:37:42.729Z,99.99
2018-02-27T15:39:04.684Z,99.99
2018-02-27T15:40:58.701Z,99.99
2018-02-27T15:42:20.857Z,99.99
2018-02-27T15:43:43.214Z,99.99
2018-02-27T15:45:04.837Z,99.99
2018-02-27T15:46:26.774Z,99.99
2018-02-27T15:47:48.403Z,99.99
2018-02-27T15:49:10.065Z,99.99
2018-02-27T15:50:32.253Z,99.99
2018-02-27T15:51:53.872Z,99.99
2018-02-27T15:53:15.786Z,99.99
2018-02-27T15:54:37.681Z,99.99
2018-02-27T15:55:59.680Z,99.99
2018-02-27T15:57:21.561Z,99.99
2018-02-27T15:58:42.987Z,99.99
2018-02-27T16:00:04.622Z,99.99
2018-02-27T16:01:26.773Z,99.99
2018-02-27T16:02:48.373Z,99.99
2018-02-27T16:04:09.991Z,99.99
2018-02-27T16:05:31.973Z,99.99
2018-02-27T16:06:53.906Z,99.99
2018-02-27T16:08:15.551Z,99.99
2018-02-27T16:09:37.794Z,99.99
2018-02-27T16:10:59.963Z,99.99
2018-02-27T16:12:21.577Z,99.99
2018-02-27T16:13:43.465Z,99.99
2018-02-27T16:15:04.572Z,99.99
2018-02-27T16:16:26.038Z,99.99
2018-02-27T16:17:47.998Z,99.99
2018-02-27T16:19:09.340Z,99.99
2018-02-27T16:20:31.231Z,99.99
2018-02-27T16:21:52.844Z,99.99
2018-02-27T16:23:14.809Z,99.99
2018-02-27T16:24:37.063Z,99.99
2018-02-27T16:25:58.938Z,99.99
2018-02-27T16:27:20.841Z,99.99
2018-02-27T16:28:42.749Z,99.99
2018-02-27T16:30:04.214Z,99.99
2018-02-27T16:31:26.570Z,99.99
2018-02-27T16:32:48.760Z,99.99
2018-02-27T16:34:10.673Z,99.99
2018-02-27T16:35:32.836Z,99.99
2018-02-27T16:36:54.499Z,99.99
2018-02-27T16:38:16.403Z,99.99
2018-02-27T16:39:38.672Z,99.99
2018-02-27T16:41:00.641Z,99.99
2018-02-27T16:42:23.184Z,99.99
2018-02-27T16:43:45.396Z,99.99
2018-02-27T16:45:07.579Z,99.99
2018-02-27T16:46:29.555Z,99.99
2018-02-27T16:47:51.461Z,99.99
2018-02-27T16:49:13.165Z,99.99
2018-02-27T16:50:35.382Z,99.99
2018-02-27T16:51:57.571Z,99.99
2018-02-27T16:53:19.213Z,99.99
2018-02-27T16:54:41.382Z,99.99
2018-02-27T16:56:03.576Z,99.99
2018-02-27T16:57:25.594Z,99.99
2018-02-27T16:58:47.830Z,99.99
2018-02-27T17:00:09.732Z,99.99
2018-02-27T17:01:31.917Z,99.99
2018-02-27T17:02:53.931Z,99.99
2018-02-27T17:04:16.218Z,99.99
2018-02-27T17:05:38.152Z,99.99
2018-02-27T17:07:00.399Z,99.99
2018-02-27T17:08:22.794Z,99.99
2018-02-27T17:09:44.440Z,99.99
2018-02-27T17:11:06.235Z,99.99
2018-02-27T17:12:28.472Z,99.99
2018-02-27T17:13:50.434Z,99.99
2018-02-27T17:15:12.317Z,99.99
2018-02-27T17:16:34.483Z,99.99
2018-02-27T17:17:56.414Z,99.99
2018-02-27T17:19:18.324Z,99.99
2018-02-27T17:20:40.582Z,99.99
2018-02-27T17:22:02.623Z,99.99
2018-02-27T17:23:24.576Z,99.99
2018-02-27T17:24:46.600Z,99.99
2018-02-27T17:26:08.773Z,99.99
2018-02-27T17:27:30.659Z,99.99
2018-02-27T17:28:52.872Z,99.99
2018-02-27T17:30:15.093Z,99.99
2018-02-27T17:31:37.379Z,99.99
2018-02-27T17:32:59.732Z,99.99
2018-02-27T17:34:21.853Z,99.99
2018-02-27T17:35:43.801Z,99.99